createdAt,value
2022-08-26T14:46:05.821Z,23.52
2022-08-26T14:46:15.468Z,23.59
2022-08-26T14:47:18.181Z,23.67
2022-08-26T14:48:15.316Z,23.67
2022-08-26T14:49:15.502Z,23.63
2022-08-26T14:50:17.695Z,23.64
2022-08-26T14:51:15.356Z,23.73
2022-08-26T14:52:15.322Z,23.64
2022-08-26T14:53:15.332Z,23.69
2022-08-26T14:54:15.328Z,23.63
2022-08-26T14:55:15.322Z,23.59
2022-08-26T14:56:20.627Z,23.59
2022-08-26T14:57:15.338Z,23.67
2022-08-26T14:58:18.428Z,23.59
2022-08-26T14:59:15.338Z,23.49
2022-08-26T15:00:15.345Z,23.45
2022-08-26T15:01:15.468Z,23.49
2022-08-26T15:02:35.327Z,23.52
2022-08-26T15:04:15.350Z,23.37
2022-08-26T15:05:15.351Z,23.37
2022-08-26T15:06:15.361Z,23.28
2022-08-26T15:07:17.416Z,23.14
2022-08-26T15:08:15.673Z,23.25
2022-08-26T15:09:15.349Z,23.29
2022-08-26T15:10:15.360Z,23.2
2022-08-26T15:11:15.382Z,23.21
2022-08-26T15:12:15.358Z,23.21
2022-08-26T15:13:15.365Z,23.07
2022-08-26T15:14:24.400Z,23.06
2022-08-26T15:15:15.358Z,23.17
2022-08-26T15:16:15.589Z,23.06
2022-08-26T15:17:15.382Z,23.16
2022-08-26T15:18:15.385Z,23.21
2022-08-26T15:19:15.380Z,23.17
2022-08-26T15:20:15.370Z,23.13
2022-08-26T15:21:16.323Z,23.11
2022-08-26T15:22:15.384Z,23.08
2022-08-26T15:23:15.759Z,22.92
2022-08-26T15:24:15.385Z,22.81
2022-08-26T15:25:15.381Z,22.86
2022-08-26T15:26:15.402Z,22.7
2022-08-26T15:27:15.483Z,22.74
2022-08-26T15:28:15.390Z,22.74
2022-08-26T15:29:15.380Z,22.8
2022-08-26T15:30:18.508Z,22.76
2022-08-26T15:31:15.667Z,22.77
2022-08-26T15:32:15.404Z,22.84
2022-08-26T15:33:20.041Z,22.62
2022-08-26T15:34:20.580Z,22.77
2022-08-26T15:35:15.411Z,22.74
2022-08-26T15:36:15.415Z,22.78
2022-08-26T15:37:15.402Z,22.71
2022-08-26T15:38:15.838Z,22.8
2022-08-26T15:39:15.403Z,22.81
2022-08-26T15:40:15.655Z,22.89
2022-08-26T15:41:18.242Z,22.77
2022-08-26T15:42:15.416Z,22.81
2022-08-26T15:43:32.460Z,22.91
2022-08-26T15:44:15.419Z,22.84
2022-08-26T15:45:28.076Z,22.78
2022-08-26T15:46:15.633Z,22.78
2022-08-26T15:47:15.416Z,22.86
2022-08-26T15:48:18.297Z,22.86
2022-08-26T15:49:22.304Z,22.89
2022-08-26T15:50:15.431Z,22.92
2022-08-26T15:51:15.453Z,22.92
2022-08-26T15:52:18.199Z,22.88
2022-08-26T15:53:15.430Z,22.95
2022-08-26T15:54:15.433Z,23.04
2022-08-26T15:55:15.946Z,22.99
2022-08-26T15:56:15.468Z,23.01
2022-08-26T15:57:21.341Z,22.98
2022-08-26T15:58:15.458Z,22.98
2022-08-26T15:59:15.450Z,22.99
2022-08-26T16:00:15.446Z,22.89
2022-08-26T16:01:27.629Z,22.76
2022-08-26T16:02:15.745Z,22.78
2022-08-26T16:03:18.564Z,22.81
2022-08-26T16:04:15.464Z,22.77
2022-08-26T16:05:15.473Z,22.76
2022-08-26T16:06:15.685Z,22.71
2022-08-26T16:07:15.456Z,22.76
2022-08-26T16:08:15.647Z,22.63
2022-08-26T16:09:15.469Z,22.68
2022-08-26T16:10:15.462Z,22.65
2022-08-26T16:11:15.487Z,22.62
2022-08-26T16:12:18.506Z,22.62
2022-08-26T16:13:19.693Z,22.65
2022-08-26T16:14:18.258Z,22.62
2022-08-26T16:15:15.537Z,22.68
2022-08-26T16:16:15.656Z,22.63
2022-08-26T16:17:15.491Z,22.76
2022-08-26T16:18:15.585Z,22.63
2022-08-26T16:19:15.482Z,22.67
2022-08-26T16:20:15.480Z,22.63
2022-08-26T16:21:18.538Z,22.62
2022-08-26T16:22:15.487Z,22.62
2022-08-26T16:23:15.492Z,22.58
2022-08-26T16:24:15.483Z,22.46
2022-08-26T16:25:18.501Z,22.3
2022-08-26T16:26:15.509Z,22.4
2022-08-26T16:27:15.610Z,22.31
2022-08-26T16:28:28.239Z,22.49
2022-08-26T16:29:15.499Z,22.41
2022-08-26T16:30:18.270Z,22.49
2022-08-26T16:31:15.839Z,22.43
2022-08-26T16:32:15.507Z,22.44
2022-08-26T16:33:31.594Z,22.49
2022-08-26T16:34:15.511Z,22.47
2022-08-26T16:35:15.518Z,22.37
2022-08-26T16:36:18.317Z,22.28
2022-08-26T16:37:15.732Z,22.28
2022-08-26T16:38:15.624Z,22.15
2022-08-26T16:39:15.514Z,22.08
2022-08-26T16:40:15.664Z,22.07
2022-08-26T16:41:16.684Z,22
2022-08-26T16:42:15.527Z,22.12
2022-08-26T16:43:19.887Z,22.01
2022-08-26T16:44:15.362Z,22.15
2022-08-26T16:45:15.527Z,21.99
2022-08-26T16:46:15.893Z,22.08
2022-08-26T16:47:18.591Z,22.15
2022-08-26T16:48:15.688Z,22.06
2022-08-26T16:49:15.531Z,22.07
2022-08-26T16:50:15.548Z,22.01
2022-08-26T16:51:15.555Z,22.04
2022-08-26T16:52:18.710Z,22.1
2022-08-26T16:53:15.584Z,22
2022-08-26T16:54:15.549Z,21.92
2022-08-26T16:55:15.546Z,21.96
2022-08-26T16:56:15.581Z,21.99
2022-08-26T16:57:15.548Z,21.92
2022-08-26T16:58:19.373Z,22
2022-08-26T16:59:15.554Z,21.94
2022-08-26T17:00:15.564Z,21.91
2022-08-26T17:01:15.728Z,21.91
2022-08-26T17:02:15.678Z,21.94
2022-08-26T17:03:18.509Z,21.91
2022-08-26T17:04:15.552Z,21.89
2022-08-26T17:05:15.563Z,21.68
2022-08-26T17:06:15.584Z,21.81
2022-08-26T17:07:15.572Z,21.85
2022-08-26T17:08:30.767Z,21.85
2022-08-26T17:09:15.581Z,21.85
2022-08-26T17:10:15.591Z,21.92
2022-08-26T17:11:15.585Z,21.85
2022-08-26T17:12:15.583Z,21.8
2022-08-26T17:13:37.595Z,21.77
2022-08-26T17:14:19.923Z,21.83
2022-08-26T17:15:15.585Z,21.84
2022-08-26T17:16:15.811Z,21.83
2022-08-26T17:17:15.583Z,21.81
2022-08-26T17:18:15.587Z,21.74
2022-08-26T17:19:15.590Z,21.84
2022-08-26T17:20:15.604Z,21.72
2022-08-26T17:21:15.639Z,21.68
2022-08-26T17:22:15.602Z,21.72
2022-08-26T17:23:15.739Z,21.8
2022-08-26T17:24:15.694Z,21.78
2022-08-26T17:25:18.160Z,21.75
2022-08-26T17:26:15.623Z,21.81
2022-08-26T17:27:15.623Z,21.7
2022-08-26T17:28:18.183Z,21.77
2022-08-26T17:29:15.612Z,21.88
2022-08-26T17:30:15.621Z,21.69
2022-08-26T17:31:15.843Z,21.84
2022-08-26T17:32:15.611Z,21.74
2022-08-26T17:33:17.193Z,21.83
2022-08-26T17:34:15.716Z,21.81
2022-08-26T17:35:17.430Z,21.81
2022-08-26T17:36:15.644Z,21.84
2022-08-26T17:37:15.618Z,21.89
2022-08-26T17:38:15.718Z,21.91
2022-08-26T17:39:15.621Z,21.96
2022-08-26T17:40:15.764Z,21.92
2022-08-26T17:41:15.645Z,21.89
2022-08-26T17:42:15.631Z,22.03
2022-08-26T17:43:17.125Z,21.94
2022-08-26T17:44:15.638Z,22
2022-08-26T17:45:15.844Z,21.96
2022-08-26T17:46:15.835Z,22
2022-08-26T17:47:15.641Z,22
2022-08-26T17:48:16.084Z,21.96
2022-08-26T17:49:15.646Z,21.81
2022-08-26T17:50:15.642Z,21.83
2022-08-26T17:51:15.676Z,21.68
2022-08-26T17:52:16.304Z,21.75
2022-08-26T17:53:23.382Z,21.74
2022-08-26T17:54:15.683Z,21.62
2022-08-26T17:55:15.704Z,21.72
2022-08-26T17:56:15.921Z,21.7
2022-08-26T17:57:20.995Z,21.66
2022-08-26T17:58:19.174Z,21.66
2022-08-26T17:59:17.293Z,21.63
2022-08-26T18:00:15.669Z,21.62
2022-08-26T18:01:16.033Z,21.63
2022-08-26T18:02:15.834Z,21.6
2022-08-26T18:03:16.068Z,21.69
2022-08-26T18:04:16.015Z,21.65
2022-08-26T18:05:15.680Z,21.66
2022-08-26T18:06:15.701Z,21.69
2022-08-26T18:07:15.678Z,21.68
2022-08-26T18:08:18.582Z,21.65
2022-08-26T18:09:15.678Z,21.65
2022-08-26T18:10:17.837Z,21.7
2022-08-26T18:11:15.703Z,21.74
2022-08-26T18:12:15.684Z,21.78
2022-08-26T18:13:15.928Z,21.68
2022-08-26T18:14:15.698Z,21.69
2022-08-26T18:15:15.533Z,21.77
2022-08-26T18:16:16.065Z,21.75
2022-08-26T18:17:19.772Z,21.78
2022-08-26T18:18:15.694Z,21.83
2022-08-26T18:19:18.777Z,21.91
2022-08-26T18:20:15.748Z,21.85
2022-08-26T18:21:15.741Z,21.84
2022-08-26T18:22:20.232Z,21.92
2022-08-26T18:23:15.990Z,21.85
2022-08-26T18:24:18.760Z,21.89
2022-08-26T18:25:15.706Z,21.88
2022-08-26T18:26:16.999Z,21.96
2022-08-26T18:27:15.706Z,21.91
2022-08-26T18:28:15.711Z,21.92
2022-08-26T18:29:15.719Z,21.91
2022-08-26T18:30:20.813Z,21.94
2022-08-26T18:31:16.220Z,21.91
2022-08-26T18:32:15.721Z,21.96
2022-08-26T18:33:16.143Z,21.99
2022-08-26T18:34:15.739Z,21.94
2022-08-26T18:35:15.726Z,21.96
2022-08-26T18:36:15.754Z,21.96
2022-08-26T18:37:15.784Z,21.94
2022-08-26T18:38:17.264Z,21.85
2022-08-26T18:39:15.743Z,21.89
2022-08-26T18:40:15.974Z,21.97
2022-08-26T18:41:17.275Z,21.96
2022-08-26T18:42:15.831Z,21.89
2022-08-26T18:43:15.746Z,21.85
2022-08-26T18:44:18.392Z,21.92
2022-08-26T18:45:20.801Z,21.91
2022-08-26T18:46:16.011Z,21.89
2022-08-26T18:47:15.814Z,21.88
2022-08-26T18:48:16.180Z,21.91
2022-08-26T18:49:15.751Z,21.88
2022-08-26T18:50:15.768Z,21.77
2022-08-26T18:51:17.562Z,21.84
2022-08-26T18:52:19.235Z,21.83
2022-08-26T18:53:15.764Z,21.81
2022-08-26T18:54:15.988Z,21.81
2022-08-26T18:55:15.758Z,21.85
2022-08-26T18:56:21.079Z,21.88
2022-08-26T18:57:18.875Z,21.77
2022-08-26T18:58:16.219Z,21.83
2022-08-26T18:59:15.800Z,21.81
2022-08-26T19:00:15.819Z,21.85
2022-08-26T19:01:16.313Z,21.78
2022-08-26T19:02:16.373Z,21.84
2022-08-26T19:03:23.571Z,21.83
2022-08-26T19:04:20.136Z,21.89
2022-08-26T19:05:15.774Z,21.88
2022-08-26T19:06:15.783Z,21.88
2022-08-26T19:07:15.812Z,21.84
2022-08-26T19:08:18.666Z,21.8
2022-08-26T19:09:20.898Z,21.84
2022-08-26T19:10:16.049Z,21.97
2022-08-26T19:11:18.787Z,21.88
2022-08-26T19:12:15.822Z,21.97
2022-08-26T19:13:18.088Z,21.89
2022-08-26T19:14:18.613Z,21.92
2022-08-26T19:15:15.711Z,21.92
2022-08-26T19:16:15.839Z,21.88
2022-08-26T19:17:15.986Z,21.99
2022-08-26T19:18:15.805Z,21.92
2022-08-26T19:19:18.593Z,21.96
2022-08-26T19:20:15.834Z,21.97
2022-08-26T19:21:15.848Z,21.96
2022-08-26T19:22:15.831Z,21.91
2022-08-26T19:23:35.595Z,21.92
2022-08-26T19:24:15.839Z,21.94
2022-08-26T19:25:15.840Z,21.99
2022-08-26T19:26:15.835Z,22
2022-08-26T19:27:19.471Z,21.97
2022-08-26T19:28:15.847Z,22.04
2022-08-26T19:30:18.600Z,22.07
2022-08-26T19:31:16.074Z,21.96
2022-08-26T19:32:15.867Z,22.03
2022-08-26T19:33:16.112Z,22.1
2022-08-26T19:34:23.064Z,22.06
2022-08-26T19:35:15.909Z,22.01
2022-08-26T19:36:22.244Z,22.03
2022-08-26T19:37:15.993Z,21.92
2022-08-26T19:38:18.392Z,22.06
2022-08-26T19:39:15.923Z,21.94
2022-08-26T19:40:21.293Z,22
2022-08-26T19:41:18.743Z,22.04
2022-08-26T19:42:15.880Z,22.03
2022-08-26T19:43:16.894Z,21.99
2022-08-26T19:44:15.871Z,22.08
2022-08-26T19:45:29.683Z,22
2022-08-26T19:46:16.118Z,22.07
2022-08-26T19:47:15.895Z,22.04
2022-08-26T19:48:16.087Z,22.1
2022-08-26T19:49:15.864Z,22.12
2022-08-26T19:50:16.068Z,21.97
2022-08-26T19:51:16.848Z,21.99
2022-08-26T19:52:15.893Z,22.12
2022-08-26T19:53:15.958Z,22.07
2022-08-26T19:54:15.866Z,22.04
2022-08-26T19:55:15.871Z,22.16
2022-08-26T19:56:15.907Z,22.03
2022-08-26T19:57:16.440Z,22.01
2022-08-26T19:58:16.199Z,22
2022-08-26T19:59:16.292Z,21.92
2022-08-26T20:00:16.153Z,22.04
2022-08-26T20:01:16.230Z,22.01
2022-08-26T20:02:16.274Z,22
2022-08-26T20:03:20.924Z,21.96
2022-08-26T20:04:15.894Z,21.92
2022-08-26T20:05:15.962Z,21.91
2022-08-26T20:06:15.895Z,21.99
2022-08-26T20:07:21.342Z,21.92
2022-08-26T20:08:27.362Z,21.91
2022-08-26T20:09:16.110Z,21.88
2022-08-26T20:10:16.005Z,21.8
2022-08-26T20:11:16.032Z,21.83
2022-08-26T20:12:16.021Z,21.85
2022-08-26T20:13:15.905Z,21.89
2022-08-26T20:14:18.199Z,21.88
2022-08-26T20:15:15.916Z,21.85
2022-08-26T20:16:16.117Z,21.94
2022-08-26T20:17:15.930Z,21.85
2022-08-26T20:18:16.099Z,21.89
2022-08-26T20:19:15.915Z,21.81
2022-08-26T20:20:37.962Z,21.84
2022-08-26T20:21:15.921Z,21.83
2022-08-26T20:22:16.019Z,21.81
2022-08-26T20:23:16.280Z,21.85
2022-08-26T20:24:19.126Z,21.72
2022-08-26T20:25:15.929Z,21.75
2022-08-26T20:26:15.927Z,21.58
2022-08-26T20:27:15.964Z,21.59
2022-08-26T20:28:16.232Z,21.6
2022-08-26T20:29:15.968Z,21.58
2022-08-26T20:30:15.937Z,21.48
2022-08-26T20:31:17.901Z,21.45
2022-08-26T20:32:16.259Z,21.5
2022-08-26T20:33:16.208Z,21.5
2022-08-26T20:34:15.943Z,21.53
2022-08-26T20:35:18.741Z,21.53
2022-08-26T20:36:15.950Z,21.48
2022-08-26T20:37:16.018Z,21.41
2022-08-26T20:38:20.907Z,21.29
2022-08-26T20:39:15.959Z,21.44
2022-08-26T20:40:16.490Z,21.44
2022-08-26T20:41:15.960Z,21.32
2022-08-26T20:42:25.056Z,21.41
2022-08-26T20:43:16.081Z,21.4
2022-08-26T20:44:15.972Z,21.37
2022-08-26T20:45:16.270Z,21.45
2022-08-26T20:46:27.023Z,21.47
2022-08-26T20:47:16.329Z,21.35
2022-08-26T20:48:16.279Z,21.4
2022-08-26T20:49:15.969Z,21.41
2022-08-26T20:50:16.019Z,21.45
2022-08-26T20:51:15.905Z,21.44
2022-08-26T20:52:15.998Z,21.47
2022-08-26T20:53:15.991Z,21.48
2022-08-26T20:54:16.140Z,21.45
2022-08-26T20:55:19.079Z,21.43
2022-08-26T20:56:15.983Z,21.5
2022-08-26T20:57:19.166Z,21.44
2022-08-26T20:58:16.016Z,21.43
2022-08-26T20:59:16.046Z,21.37
2022-08-26T21:00:17.308Z,21.37
2022-08-26T21:01:16.164Z,21.48
2022-08-26T21:02:16.010Z,21.44
2022-08-26T21:03:16.066Z,21.4
2022-08-26T21:04:16.030Z,21.44
2022-08-26T21:05:16.245Z,21.44
2022-08-26T21:06:16.004Z,21.43
2022-08-26T21:07:16.021Z,21.44
2022-08-26T21:08:19.532Z,21.48
2022-08-26T21:09:17.598Z,21.38
2022-08-26T21:10:16.018Z,21.45
2022-08-26T21:11:16.192Z,21.29
2022-08-26T21:12:16.019Z,21.4
2022-08-26T21:13:16.013Z,21.28
2022-08-26T21:14:25.665Z,21.23
2022-08-26T21:15:18.372Z,21.1
2022-08-26T21:16:16.192Z,21.19
2022-08-26T21:17:16.036Z,21.2
2022-08-26T21:18:16.366Z,21.25
2022-08-26T21:19:19.068Z,21.19
2022-08-26T21:20:18.473Z,21.28
2022-08-26T21:21:16.030Z,21.25
2022-08-26T21:22:16.288Z,21.22
2022-08-26T21:23:16.036Z,21.2
2022-08-26T21:24:19.209Z,21.15
2022-08-26T21:25:16.898Z,21.1
2022-08-26T21:26:18.207Z,21.08
2022-08-26T21:27:23.069Z,21.03
2022-08-26T21:28:16.733Z,20.98
2022-08-26T21:29:16.100Z,20.9
2022-08-26T21:30:19.407Z,21.03
2022-08-26T21:31:16.697Z,21.04
2022-08-26T21:32:20.349Z,21.11
2022-08-26T21:33:22.389Z,21.08
2022-08-26T21:34:16.476Z,20.96
2022-08-26T21:35:19.451Z,20.98
2022-08-26T21:36:16.060Z,20.95
2022-08-26T21:37:21.514Z,20.9
2022-08-26T21:38:16.506Z,20.98
2022-08-26T21:39:16.883Z,21
2022-08-26T21:40:16.358Z,20.95
2022-08-26T21:41:20.219Z,21.1
2022-08-26T21:42:16.076Z,20.98
2022-08-26T21:43:38.226Z,20.86
2022-08-26T21:44:16.064Z,20.68
2022-08-26T21:45:16.164Z,20.77
2022-08-26T21:46:19.344Z,20.73
2022-08-26T21:47:17.914Z,20.75
2022-08-26T21:48:16.343Z,20.83
2022-08-26T21:49:16.074Z,20.86
2022-08-26T21:50:16.077Z,20.8
2022-08-26T21:51:16.171Z,20.83
2022-08-26T21:52:21.026Z,20.82
2022-08-26T21:53:16.100Z,20.8
2022-08-26T21:54:16.342Z,20.75
2022-08-26T21:55:16.418Z,20.75
2022-08-26T21:56:16.228Z,20.77
2022-08-26T21:57:17.925Z,20.8
2022-08-26T21:58:16.276Z,20.74
2022-08-26T21:59:16.101Z,20.71
2022-08-26T22:00:16.103Z,20.75
2022-08-26T22:01:16.375Z,20.78
2022-08-26T22:02:16.399Z,20.74
2022-08-26T22:03:16.225Z,20.85
2022-08-26T22:04:16.290Z,20.8
2022-08-26T22:05:16.105Z,20.8
2022-08-26T22:06:16.406Z,20.83
2022-08-26T22:07:17.077Z,20.82
2022-08-26T22:08:18.781Z,20.71
2022-08-26T22:09:16.111Z,20.83
2022-08-26T22:10:16.113Z,20.85
2022-08-26T22:11:16.104Z,20.82
2022-08-26T22:12:16.128Z,20.8
2022-08-26T22:13:19.961Z,20.83
2022-08-26T22:14:16.306Z,20.71
2022-08-26T22:15:16.223Z,20.82
2022-08-26T22:16:21.774Z,20.78
2022-08-26T22:17:16.138Z,20.88
2022-08-26T22:18:16.136Z,20.8
2022-08-26T22:19:23.418Z,20.78
2022-08-26T22:20:21.234Z,20.77
2022-08-26T22:21:16.140Z,20.77
2022-08-26T22:22:16.934Z,20.78
2022-08-26T22:23:16.372Z,20.75
2022-08-26T22:24:16.225Z,20.83
2022-08-26T22:25:16.143Z,20.82
2022-08-26T22:26:20.575Z,20.9
2022-08-26T22:27:16.318Z,20.75
2022-08-26T22:28:16.353Z,20.82
2022-08-26T22:29:16.156Z,20.75
2022-08-26T22:30:16.415Z,20.78
2022-08-26T22:31:16.377Z,20.73
2022-08-26T22:32:16.432Z,20.71
2022-08-26T22:33:16.172Z,20.56
2022-08-26T22:34:16.163Z,20.74
2022-08-26T22:35:33.555Z,20.73
2022-08-26T22:36:16.179Z,20.74
2022-08-26T22:37:16.178Z,20.71
2022-08-26T22:38:16.312Z,20.75
2022-08-26T22:39:16.523Z,20.77
2022-08-26T22:40:16.312Z,20.71
2022-08-26T22:41:16.171Z,20.68
2022-08-26T22:42:16.207Z,20.67
2022-08-26T22:43:16.185Z,20.74
2022-08-26T22:44:16.273Z,20.71
2022-08-26T22:45:16.199Z,20.74
2022-08-26T22:46:16.382Z,20.78
2022-08-26T22:47:16.212Z,20.8
2022-08-26T22:48:16.733Z,20.74
2022-08-26T22:49:16.292Z,20.74
2022-08-26T22:50:16.193Z,20.75
2022-08-26T22:51:17.306Z,20.78
2022-08-26T22:52:16.269Z,20.77
2022-08-26T22:53:16.221Z,20.78
2022-08-26T22:54:18.943Z,20.74
2022-08-26T22:55:16.227Z,20.85
2022-08-26T22:56:16.205Z,20.85
2022-08-26T22:57:16.315Z,20.8
2022-08-26T22:58:19.681Z,20.77
2022-08-26T22:59:16.234Z,20.8
2022-08-26T23:00:16.204Z,20.86
2022-08-26T23:01:16.611Z,20.78
2022-08-26T23:02:23.805Z,20.73
2022-08-26T23:03:19.466Z,20.82
2022-08-26T23:04:16.495Z,20.83
2022-08-26T23:05:16.214Z,20.78
2022-08-26T23:06:16.248Z,20.8
2022-08-26T23:07:16.288Z,20.86
2022-08-26T23:08:16.828Z,20.8
2022-08-26T23:09:17.387Z,20.74
2022-08-26T23:10:16.219Z,20.75
2022-08-26T23:11:16.226Z,20.82
2022-08-26T23:12:16.221Z,20.74
2022-08-26T23:13:19.177Z,20.8
2022-08-26T23:14:16.234Z,20.83
2022-08-26T23:15:18.329Z,20.78
2022-08-26T23:16:16.767Z,20.95
2022-08-26T23:17:16.238Z,20.83
2022-08-26T23:18:16.819Z,20.83
2022-08-26T23:19:16.253Z,20.85
2022-08-26T23:20:16.280Z,20.78
2022-08-26T23:21:16.242Z,20.85
2022-08-26T23:22:16.241Z,20.78
2022-08-26T23:23:16.273Z,20.86
2022-08-26T23:24:19.020Z,20.85
2022-08-26T23:25:16.359Z,20.85
2022-08-26T23:26:21.217Z,20.8
2022-08-26T23:27:16.255Z,20.75
2022-08-26T23:28:16.570Z,20.77
2022-08-26T23:29:16.092Z,20.82
2022-08-26T23:30:16.265Z,20.75
2022-08-26T23:31:16.541Z,20.78
2022-08-26T23:32:19.470Z,20.8
2022-08-26T23:33:16.307Z,20.7
2022-08-26T23:34:16.777Z,20.74
2022-08-26T23:35:23.114Z,20.86
2022-08-26T23:36:25.013Z,20.85
2022-08-26T23:37:17.578Z,20.82
2022-08-26T23:38:18.672Z,20.78
2022-08-26T23:39:16.380Z,20.85
2022-08-26T23:40:16.514Z,20.78
2022-08-26T23:41:19.334Z,20.8
2022-08-26T23:42:16.292Z,20.8
2022-08-26T23:43:16.318Z,20.78
2022-08-26T23:44:16.290Z,20.74
2022-08-26T23:45:16.388Z,20.75
2022-08-26T23:46:19.348Z,20.77
2022-08-26T23:47:16.302Z,20.68
2022-08-26T23:48:19.448Z,20.77
2022-08-26T23:49:16.305Z,20.74
2022-08-26T23:50:16.296Z,20.71
2022-08-26T23:51:19.417Z,20.7
2022-08-26T23:52:16.292Z,20.86
2022-08-26T23:53:16.313Z,20.73
2022-08-26T23:54:16.302Z,20.71
2022-08-26T23:55:16.301Z,20.7
2022-08-26T23:56:16.300Z,20.66
2022-08-26T23:57:19.207Z,20.71
2022-08-26T23:58:16.614Z,20.66
2022-08-26T23:59:16.303Z,20.68
